Time;durP1;ratioP1;P1;durP2;ratioP2;P2;SDS_P1;SDS_P2;PMS_P1;PMS_P2;Temp;Humidity;BMP_temperature;BMP_pressure;BME280_temperature;BME280_humidity;BME280_pressure;Samples;Min_cycle;Max_cycle;Signal;HPM_P1;HPM_P2
2023/07/07 00:00:31;;;;;;;16.05;5.50;;;19.80;99.00;;;;;;4999108;28;20423;-68
2023/07/07 00:03:20;;;;;;;13.75;5.82;;;19.80;99.10;;;;;;4977101;28;20610;-68
2023/07/07 00:06:09;;;;;;;11.65;5.68;;;19.70;99.00;;;;;;4986852;28;20231;-68
2023/07/07 00:08:59;;;;;;;13.13;6.00;;;19.70;99.50;;;;;;4979244;28;20552;-69
2023/07/07 00:11:50;;;;;;;8.15;5.10;;;19.60;99.30;;;;;;4976351;28;20234;-68
2023/07/07 00:14:38;;;;;;;13.30;5.63;;;19.70;99.00;;;;;;4981079;28;20224;-69
2023/07/07 00:17:27;;;;;;;14.38;5.95;;;19.70;99.70;;;;;;4999521;28;21335;-70
2023/07/07 00:20:17;;;;;;;12.20;5.15;;;19.70;99.10;;;;;;4979726;28;20254;-68
2023/07/07 00:23:06;;;;;;;9.27;5.00;;;19.80;98.50;;;;;;4976692;28;20238;-71
2023/07/07 00:26:02;;;;;;;11.93;5.15;;;19.80;99.90;;;;;;4969531;28;20251;-69
2023/07/07 00:28:53;;;;;;;15.30;5.72;;;19.80;99.40;;;;;;4973781;28;20230;-68
2023/07/07 00:31:42;;;;;;;11.13;5.45;;;19.60;98.70;;;;;;4971179;28;20231;-68
2023/07/07 00:34:31;;;;;;;10.70;5.18;;;19.40;99.90;;;;;;4958299;28;20380;-68
2023/07/07 00:37:19;;;;;;;12.90;5.50;;;19.60;99.90;;;;;;4975371;28;20606;-68
2023/07/07 00:40:09;;;;;;;14.38;5.70;;;19.50;99.90;;;;;;4978712;28;20254;-70
2023/07/07 00:42:58;;;;;;;11.07;6.32;;;19.60;99.90;;;;;;4990592;28;20544;-68
2023/07/07 00:45:49;;;;;;;9.93;5.78;;;19.50;99.90;;;;;;4971094;28;20222;-69
2023/07/07 00:48:41;;;;;;;9.25;5.18;;;19.30;99.90;;;;;;4976418;28;20297;-69
2023/07/07 00:51:34;;;;;;;10.77;5.72;;;19.30;99.90;;;;;;4987920;28;20227;-70
2023/07/07 00:54:33;;;;;;;10.68;5.00;;;19.30;99.90;;;;;;4993060;28;20338;-69
2023/07/07 00:57:22;;;;;;;14.32;5.55;;;19.30;99.40;;;;;;4984526;28;20223;-71
2023/07/07 01:00:14;;;;;;;7.20;4.93;;;19.30;99.90;;;;;;4977427;28;20701;-70
2023/07/07 01:03:10;;;;;;;8.90;5.13;;;19.30;99.20;;;;;;4984713;28;20227;-70
2023/07/07 01:06:02;;;;;;;9.45;5.07;;;19.30;99.90;;;;;;4995052;28;20222;-69
2023/07/07 01:09:01;;;;;;;7.97;5.28;;;19.30;99.90;;;;;;4979914;28;20223;-69
2023/07/07 01:11:50;;;;;;;10.18;5.40;;;19.30;99.90;;;;;;4975618;28;20219;-69
2023/07/07 01:14:40;;;;;;;9.02;5.10;;;19.30;99.80;;;;;;4978599;28;20218;-69
2023/07/07 01:17:39;;;;;;;7.00;4.60;;;19.50;99.90;;;;;;4978094;28;20235;-69
2023/07/07 01:20:34;;;;;;;9.88;5.70;;;19.40;99.70;;;;;;4972479;28;20226;-71
2023/07/07 01:23:46;;;;;;;9.38;5.55;;;19.30;99.90;;;;;;4984659;28;20257;-70
2023/07/07 01:26:55;;;;;;;8.07;5.28;;;19.30;99.90;;;;;;4984164;28;20234;-71
2023/07/07 01:30:22;;;;;;;9.23;5.72;;;19.30;99.90;;;;;;4973842;28;20218;-71
2023/07/07 01:33:16;;;;;;;8.57;5.50;;;19.30;99.90;;;;;;4971764;28;20231;-69
2023/07/07 01:36:05;;;;;;;12.63;5.10;;;19.20;99.90;;;;;;4985066;28;20226;-68
2023/07/07 01:38:54;;;;;;;11.48;5.63;;;19.10;99.90;;;;;;4985837;28;20319;-71
2023/07/07 01:41:51;;;;;;;9.00;5.07;;;19.10;99.90;;;;;;4975602;28;20266;-70
2023/07/07 01:44:45;;;;;;;9.05;5.82;;;19.20;99.90;;;;;;4976156;28;20231;-69
2023/07/07 01:47:38;;;;;;;8.38;4.95;;;19.20;99.90;;;;;;4987797;28;20306;-70
2023/07/07 01:50:31;;;;;;;9.70;5.30;;;19.20;99.90;;;;;;4970393;28;20223;-70
2023/07/07 01:53:24;;;;;;;8.57;5.30;;;19.20;99.90;;;;;;4993365;28;20389;-69
2023/07/07 01:56:19;;;;;;;8.63;5.22;;;19.10;99.90;;;;;;4980725;28;20753;-68
2023/07/07 01:59:08;;;;;;;11.65;5.60;;;19.10;99.90;;;;;;4999395;28;20222;-70
2023/07/07 02:01:57;;;;;;;10.10;5.18;;;18.90;99.90;;;;;;4983056;28;20227;-69
2023/07/07 02:04:47;;;;;;;8.65;5.40;;;18.90;99.90;;;;;;4978579;28;20238;-69
2023/07/07 02:07:36;;;;;;;8.07;5.28;;;19.00;99.90;;;;;;4978064;28;20234;-69
2023/07/07 02:10:25;;;;;;;11.02;5.63;;;19.10;99.90;;;;;;4982330;28;20220;-68
2023/07/07 02:13:14;;;;;;;10.85;5.47;;;19.10;99.90;;;;;;4984039;28;20776;-67
2023/07/07 02:16:04;;;;;;;11.38;5.45;;;18.90;99.90;;;;;;4975983;28;20219;-69
2023/07/07 02:18:57;;;;;;;10.23;5.20;;;18.90;99.90;;;;;;4976022;28;20714;-69
2023/07/07 02:21:47;;;;;;;11.63;5.20;;;18.90;99.90;;;;;;4972872;28;20270;-69
2023/07/07 02:24:36;;;;;;;9.23;5.68;;;18.80;99.90;;;;;;4967353;28;20239;-69
2023/07/07 02:27:25;;;;;;;10.10;5.63;;;18.90;99.90;;;;;;4971494;28;20254;-70
2023/07/07 02:30:17;;;;;;;10.88;5.97;;;18.90;99.90;;;;;;4974307;28;20238;-71
2023/07/07 02:33:08;;;;;;;8.05;5.43;;;18.80;99.90;;;;;;4982220;28;20602;-72
2023/07/07 02:35:59;;;;;;;11.30;5.70;;;18.90;99.90;;;;;;4987157;28;20230;-68
2023/07/07 02:38:49;;;;;;;8.68;5.35;;;18.90;99.90;;;;;;4970656;28;20306;-71
2023/07/07 02:41:38;;;;;;;13.32;6.07;;;19.10;99.90;;;;;;4966601;28;20239;-71
2023/07/07 02:44:27;;;;;;;11.90;5.30;;;19.10;99.90;;;;;;4977621;28;20235;-71
2023/07/07 02:47:16;;;;;;;11.63;5.78;;;19.10;99.90;;;;;;4980803;28;20224;-70
2023/07/07 02:50:06;;;;;;;10.05;5.13;;;19.10;99.90;;;;;;4978117;28;20222;-70
2023/07/07 02:52:55;;;;;;;12.57;5.88;;;19.10;99.90;;;;;;4973411;28;20250;-70
2023/07/07 02:55:47;;;;;;;10.65;5.30;;;19.10;99.90;;;;;;4981317;28;20265;-71
2023/07/07 02:58:38;;;;;;;9.55;5.35;;;19.20;99.90;;;;;;4970484;28;20219;-69
2023/07/07 03:01:27;;;;;;;14.15;5.13;;;19.20;99.90;;;;;;4977096;28;20233;-71
2023/07/07 03:04:15;;;;;;;12.18;5.70;;;19.20;99.90;;;;;;4979340;28;20254;-70
2023/07/07 03:07:04;;;;;;;11.07;5.68;;;19.40;99.90;;;;;;4980396;28;20215;-71
2023/07/07 03:09:53;;;;;;;9.98;5.32;;;19.40;99.90;;;;;;4994242;28;20655;-71
2023/07/07 03:12:44;;;;;;;17.67;5.85;;;19.40;99.90;;;;;;4971825;28;20376;-68
2023/07/07 03:15:38;;;;;;;10.02;5.22;;;19.60;99.90;;;;;;4971964;28;20246;-69
2023/07/07 03:18:32;;;;;;;10.90;6.00;;;19.50;99.90;;;;;;4975334;28;20245;-68
2023/07/07 03:21:24;;;;;;;9.90;5.68;;;19.50;99.90;;;;;;4996102;28;20237;-69
2023/07/07 03:24:23;;;;;;;8.02;5.40;;;19.60;99.90;;;;;;4977555;28;20337;-69
2023/07/07 03:27:16;;;;;;;10.07;5.50;;;19.60;99.90;;;;;;4969281;28;20276;-67
2023/07/07 03:30:08;;;;;;;12.38;6.35;;;19.60;99.90;;;;;;4978542;28;20241;-68
2023/07/07 03:33:13;;;;;;;11.50;6.32;;;19.40;99.90;;;;;;4981468;28;20289;-69
2023/07/07 03:36:06;;;;;;;9.25;6.30;;;19.30;99.90;;;;;;4971652;28;20305;-68
2023/07/07 03:38:55;;;;;;;12.77;6.55;;;19.30;99.90;;;;;;4967230;28;20310;-69
2023/07/07 03:41:45;;;;;;;10.15;6.53;;;19.30;99.90;;;;;;4983515;28;20223;-68
2023/07/07 03:44:35;;;;;;;10.40;6.05;;;19.40;99.90;;;;;;4981117;28;20749;-71
2023/07/07 03:47:25;;;;;;;9.25;6.35;;;19.50;99.90;;;;;;4979899;28;20762;-70
2023/07/07 03:50:14;;;;;;;12.85;6.55;;;19.60;99.90;;;;;;4976988;28;20246;-72
2023/07/07 03:53:03;;;;;;;10.63;6.30;;;19.70;99.90;;;;;;4977344;28;20258;-70
2023/07/07 03:55:54;;;;;;;9.88;6.63;;;19.80;99.90;;;;;;4986336;28;20738;-71
2023/07/07 03:58:43;;;;;;;8.70;5.97;;;19.90;99.90;;;;;;4970858;28;20229;-72
2023/07/07 04:01:32;;;;;;;10.52;6.50;;;19.60;99.90;;;;;;4966791;28;20302;-70
2023/07/07 04:04:23;;;;;;;10.38;6.45;;;19.60;99.90;;;;;;4973150;28;20228;-70
2023/07/07 04:07:12;;;;;;;11.95;7.03;;;19.50;99.90;;;;;;4978031;28;20227;-71
2023/07/07 04:10:02;;;;;;;13.13;7.25;;;19.40;99.90;;;;;;4979543;28;20850;-70
2023/07/07 04:12:52;;;;;;;11.73;6.95;;;19.20;99.90;;;;;;4987803;28;20223;-69
2023/07/07 04:15:42;;;;;;;13.10;7.40;;;19.30;99.90;;;;;;4978035;28;20239;-70
2023/07/07 04:18:32;;;;;;;12.35;6.93;;;19.10;99.90;;;;;;4979369;28;20277;-70
2023/07/07 04:21:25;;;;;;;12.48;6.65;;;19.10;99.90;;;;;;5001804;28;20230;-70
2023/07/07 04:24:14;;;;;;;16.85;7.03;;;19.20;99.90;;;;;;4990185;28;20710;-70
2023/07/07 04:27:03;;;;;;;14.10;7.65;;;19.40;99.90;;;;;;4976656;28;20334;-70
2023/07/07 04:29:52;;;;;;;17.92;7.55;;;19.50;99.90;;;;;;4978384;28;20295;-70
2023/07/07 04:32:41;;;;;;;12.25;6.97;;;19.40;99.90;;;;;;4993929;28;20266;-70
2023/07/07 04:35:33;;;;;;;19.00;8.00;;;19.40;99.90;;;;;;4980285;28;20246;-70
2023/07/07 04:38:30;;;;;;;21.15;7.45;;;19.50;99.90;;;;;;4989896;28;20241;-70
2023/07/07 04:41:21;;;;;;;16.25;7.78;;;19.60;99.90;;;;;;4976896;28;20635;-67
2023/07/07 04:44:09;;;;;;;17.90;7.15;;;19.60;99.90;;;;;;4989142;28;20219;-71
2023/07/07 04:46:58;;;;;;;16.92;8.18;;;19.60;99.90;;;;;;4985439;28;20229;-70
2023/07/07 04:49:48;;;;;;;12.05;7.90;;;19.60;99.90;;;;;;4987373;28;21110;-71
2023/07/07 04:52:39;;;;;;;11.60;7.20;;;19.70;99.90;;;;;;4981443;28;20699;-71
2023/07/07 04:55:30;;;;;;;18.40;7.70;;;19.80;99.90;;;;;;4994421;28;20231;-71
2023/07/07 04:58:19;;;;;;;14.55;7.50;;;19.80;99.90;;;;;;4982446;28;20289;-69
2023/07/07 05:01:09;;;;;;;16.42;8.32;;;19.90;99.90;;;;;;4977136;28;20266;-70
2023/07/07 05:03:59;;;;;;;11.57;7.05;;;20.40;99.90;;;;;;4975992;28;20237;-69
2023/07/07 05:06:48;;;;;;;13.10;7.75;;;20.60;99.90;;;;;;4994300;28;20313;-69
2023/07/07 05:09:37;;;;;;;12.43;7.07;;;20.60;99.90;;;;;;4986558;28;20229;-71
2023/07/07 05:12:27;;;;;;;10.48;6.38;;;21.00;99.00;;;;;;4975861;28;20234;-72
2023/07/07 05:15:16;;;;;;;11.73;5.88;;;20.90;97.40;;;;;;4975792;28;20612;-69
2023/07/07 05:18:05;;;;;;;10.40;5.80;;;20.90;97.30;;;;;;4975271;28;20233;-70
2023/07/07 05:20:54;;;;;;;9.55;5.93;;;21.20;98.10;;;;;;4976504;28;20604;-70
2023/07/07 05:23:46;;;;;;;10.85;6.10;;;21.60;98.20;;;;;;4975823;28;20293;-69
2023/07/07 05:26:35;;;;;;;10.70;6.25;;;21.60;97.80;;;;;;4984848;28;20280;-68
2023/07/07 05:29:25;;;;;;;10.73;6.07;;;21.50;98.30;;;;;;4980641;28;20944;-71
2023/07/07 05:32:15;;;;;;;11.68;6.43;;;21.50;98.70;;;;;;4973057;28;20741;-71
2023/07/07 05:35:04;;;;;;;11.82;5.97;;;21.40;98.30;;;;;;4995055;28;21265;-69
2023/07/07 05:37:53;;;;;;;11.20;5.05;;;21.50;98.10;;;;;;4980426;28;20230;-69
2023/07/07 05:40:43;;;;;;;6.90;5.00;;;21.80;98.30;;;;;;4986961;28;20230;-69
2023/07/07 05:43:34;;;;;;;12.80;6.15;;;22.40;97.00;;;;;;4998310;28;20361;-70
2023/07/07 05:46:24;;;;;;;9.23;5.68;;;22.60;96.10;;;;;;4980012;28;20227;-69
2023/07/07 05:49:13;;;;;;;9.75;5.43;;;22.70;95.90;;;;;;4984493;28;20238;-70
2023/07/07 05:52:02;;;;;;;9.82;5.65;;;22.80;96.10;;;;;;4991415;28;20227;-71
2023/07/07 05:54:52;;;;;;;13.40;5.95;;;22.60;96.40;;;;;;4995654;28;20833;-70
2023/07/07 05:57:40;;;;;;;11.90;5.90;;;22.30;96.50;;;;;;4977680;28;20659;-71
2023/07/07 06:00:31;;;;;;;11.23;5.35;;;22.30;97.90;;;;;;4975688;28;20659;-72
2023/07/07 06:03:26;;;;;;;12.85;6.10;;;22.20;97.40;;;;;;4982117;28;20313;-70
2023/07/07 06:06:16;;;;;;;9.35;5.20;;;22.50;95.20;;;;;;4980895;28;20377;-70
2023/07/07 06:09:06;;;;;;;8.63;5.63;;;22.30;95.10;;;;;;4977566;28;20361;-71
2023/07/07 06:11:55;;;;;;;19.80;6.40;;;22.20;95.80;;;;;;4997610;28;20229;-70
2023/07/07 06:14:44;;;;;;;14.40;6.10;;;22.00;96.30;;;;;;4979632;28;20806;-70
2023/07/07 06:17:33;;;;;;;11.15;5.13;;;21.70;96.70;;;;;;4981525;28;20219;-69
2023/07/07 06:20:24;;;;;;;10.07;6.00;;;21.80;97.50;;;;;;4987982;28;20264;-70
2023/07/07 06:23:13;;;;;;;10.13;5.68;;;22.20;96.70;;;;;;4986202;28;20240;-70
2023/07/07 06:26:02;;;;;;;18.23;10.88;;;22.60;96.70;;;;;;4990080;28;20276;-69
2023/07/07 06:28:51;;;;;;;11.38;5.35;;;22.70;95.90;;;;;;4986228;28;20314;-69
2023/07/07 06:31:40;;;;;;;16.35;5.85;;;22.90;93.90;;;;;;4991961;28;20234;-70
2023/07/07 06:34:29;;;;;;;9.20;5.22;;;23.00;93.40;;;;;;4979744;28;20239;-69
2023/07/07 06:37:19;;;;;;;10.95;5.32;;;23.20;94.20;;;;;;4977046;28;20223;-70
2023/07/07 06:40:09;;;;;;;9.07;5.00;;;24.70;92.60;;;;;;4981722;28;20253;-70
2023/07/07 06:42:58;;;;;;;11.25;4.80;;;27.50;90.30;;;;;;4983028;28;20268;-70
2023/07/07 06:45:50;;;;;;;11.75;5.07;;;27.50;85.90;;;;;;4990054;28;20227;-71
2023/07/07 06:48:38;;;;;;;10.27;5.50;;;26.70;86.00;;;;;;4985340;28;20365;-71
2023/07/07 06:51:27;;;;;;;11.65;5.50;;;26.10;88.30;;;;;;4977624;28;20275;-72
2023/07/07 06:54:17;;;;;;;12.38;5.90;;;25.70;87.50;;;;;;4980732;28;20737;-71
2023/07/07 06:57:07;;;;;;;14.25;5.30;;;25.50;86.50;;;;;;4976865;28;20241;-71
2023/07/07 06:59:56;;;;;;;14.82;5.90;;;25.10;86.50;;;;;;4981348;28;20273;-72
2023/07/07 07:02:46;;;;;;;11.77;5.55;;;25.00;86.80;;;;;;4980805;28;20227;-71
2023/07/07 07:05:35;;;;;;;14.48;5.82;;;24.90;89.50;;;;;;4982556;28;20790;-72
2023/07/07 07:08:24;;;;;;;12.40;6.45;;;24.70;88.10;;;;;;4985640;28;20238;-71
2023/07/07 07:11:16;;;;;;;13.93;5.90;;;24.90;90.80;;;;;;4987638;28;20234;-71
2023/07/07 07:14:06;;;;;;;12.68;5.07;;;25.20;90.10;;;;;;4976699;28;20249;-71
2023/07/07 07:16:55;;;;;;;9.50;5.00;;;25.60;87.20;;;;;;4981127;28;20227;-71
2023/07/07 07:19:45;;;;;;;10.85;4.70;;;25.80;87.00;;;;;;4980053;28;20697;-72
2023/07/07 07:22:34;;;;;;;11.18;5.25;;;26.10;88.00;;;;;;4978300;28;20226;-72
2023/07/07 07:25:23;;;;;;;12.13;4.70;;;26.40;85.80;;;;;;4982340;28;20299;-71
2023/07/07 07:28:16;;;;;;;10.93;4.43;;;26.50;86.10;;;;;;4980020;28;20298;-73
2023/07/07 07:31:05;;;;;;;6.63;3.83;;;26.20;83.90;;;;;;4981241;28;20227;-71
2023/07/07 07:33:55;;;;;;;14.68;4.97;;;26.70;85.50;;;;;;4980049;28;20702;-72
2023/07/07 07:36:48;;;;;;;8.00;4.88;;;26.50;82.60;;;;;;4978106;28;20230;-71
2023/07/07 07:39:38;;;;;;;9.48;4.22;;;25.70;83.00;;;;;;4986385;28;20240;-72
2023/07/07 07:42:27;;;;;;;7.07;4.40;;;26.60;84.60;;;;;;4979184;28;21113;-72
2023/07/07 07:45:21;;;;;;;7.63;4.18;;;27.30;82.20;;;;;;4977715;28;20223;-71
2023/07/07 07:48:13;;;;;;;8.50;3.90;;;27.80;81.20;;;;;;4974087;28;20219;-71
2023/07/07 07:51:02;;;;;;;10.48;5.28;;;28.30;79.20;;;;;;4981999;28;20235;-71
2023/07/07 07:54:01;;;;;;;10.25;5.07;;;27.20;79.50;;;;;;4981389;28;20253;-71
2023/07/07 07:56:50;;;;;;;14.75;5.25;;;26.10;80.40;;;;;;4989638;28;20313;-72
2023/07/07 07:59:39;;;;;;;12.98;4.72;;;25.40;84.30;;;;;;4974840;28;20233;-71
2023/07/07 08:02:29;;;;;;;9.60;4.40;;;26.70;78.80;;;;;;4981675;28;20310;-70
2023/07/07 08:05:18;;;;;;;7.32;3.95;;;27.70;79.20;;;;;;4978501;28;20234;-74
2023/07/07 08:08:08;;;;;;;6.65;3.78;;;26.90;76.50;;;;;;4986327;28;20222;-75
2023/07/07 08:10:57;;;;;;;7.30;3.78;;;27.70;77.10;;;;;;4979325;28;20253;-75
2023/07/07 08:13:58;;;;;;;5.25;3.10;;;28.50;76.10;;;;;;4975894;28;20329;-74
2023/07/07 08:16:51;;;;;;;7.53;3.67;;;27.30;75.70;;;;;;4979837;28;20219;-76
2023/07/07 08:19:44;;;;;;;6.78;3.20;;;27.40;76.90;;;;;;4981106;28;20721;-74
2023/07/07 08:22:33;;;;;;;5.78;3.33;;;27.30;77.70;;;;;;4978531;28;20807;-74
2023/07/07 08:25:21;;;;;;;4.65;2.78;;;28.30;76.70;;;;;;4974616;28;20235;-76
2023/07/07 08:28:11;;;;;;;5.45;2.90;;;29.10;73.30;;;;;;4990848;28;20214;-74
2023/07/07 08:31:00;;;;;;;5.13;2.95;;;28.30;76.70;;;;;;4977494;28;20223;-76
2023/07/07 08:33:51;;;;;;;5.38;3.17;;;27.40;78.10;;;;;;4974954;28;20998;-73
2023/07/07 08:36:44;;;;;;;6.85;2.53;;;26.80;77.10;;;;;;4975127;28;20226;-73
2023/07/07 08:39:33;;;;;;;6.18;2.97;;;26.30;79.30;;;;;;4987087;28;20900;-72
2023/07/07 08:42:26;;;;;;;4.85;3.03;;;26.10;75.40;;;;;;4975371;28;20675;-72
2023/07/07 08:45:17;;;;;;;3.67;2.70;;;27.80;73.30;;;;;;4981167;28;20710;-71
2023/07/07 08:48:16;;;;;;;4.95;2.85;;;28.80;72.20;;;;;;4969629;28;20322;-78
2023/07/07 08:51:12;;;;;;;4.03;2.65;;;29.70;68.80;;;;;;4979580;28;20234;-80
2023/07/07 08:54:14;;;;;;;3.83;2.50;;;30.00;69.80;;;;;;4981727;28;20314;-81
2023/07/07 08:57:08;;;;;;;2.58;2.38;;;29.50;69.60;;;;;;4977204;28;20746;-79
2023/07/07 09:00:07;;;;;;;4.22;2.28;;;29.50;69.00;;;;;;4987335;28;20277;-78
2023/07/07 09:03:22;;;;;;;5.57;2.47;;;30.40;64.30;;;;;;4980022;28;20222;-84
2023/07/07 09:06:25;;;;;;;4.65;2.50;;;31.50;65.30;;;;;;4987112;28;20674;-85
2023/07/07 09:09:24;;;;;;;4.38;2.42;;;31.00;62.30;;;;;;4985273;28;20290;-82
2023/07/07 09:12:28;;;;;;;5.78;2.33;;;29.50;63.20;;;;;;4986099;28;20218;-83
2023/07/07 09:15:24;;;;;;;2.58;2.38;;;30.20;65.00;;;;;;4994368;28;20226;-78
2023/07/07 09:18:20;;;;;;;3.13;2.38;;;31.40;66.10;;;;;;4993543;28;20241;-76
2023/07/07 09:21:24;;;;;;;4.82;2.60;;;32.20;60.60;;;;;;4982337;28;20313;-78
2023/07/07 09:24:22;;;;;;;3.65;2.28;;;32.40;63.80;;;;;;4988324;28;20317;-77
2023/07/07 09:27:16;;;;;;;8.95;2.50;;;30.80;63.10;;;;;;4978185;28;20230;-79
2023/07/07 09:30:14;;;;;;;4.38;2.53;;;30.20;65.50;;;;;;4984765;28;20870;-85
2023/07/07 09:33:03;;;;;;;5.78;2.60;;;31.00;63.70;;;;;;4971669;28;20222;-81
2023/07/07 09:36:02;;;;;;;7.43;2.33;;;30.20;63.30;;;;;;4986944;28;20226;-80
2023/07/07 09:38:59;;;;;;;10.10;2.63;;;29.60;66.00;;;;;;4981894;28;20241;-81
2023/07/07 09:42:01;;;;;;;3.90;2.60;;;28.90;63.70;;;;;;4977759;28;20230;-81
2023/07/07 09:45:05;;;;;;;5.22;2.80;;;28.70;67.90;;;;;;4992164;28;20244;-80
2023/07/07 09:48:05;;;;;;;3.22;1.90;;;29.00;64.90;;;;;;4979857;28;20214;-80
2023/07/07 09:51:02;;;;;;;8.05;2.40;;;30.90;64.30;;;;;;4984392;28;20266;-80
2023/07/07 09:53:52;;;;;;;5.65;2.25;;;32.70;61.90;;;;;;4980430;28;20226;-80
2023/07/07 09:56:50;;;;;;;6.25;2.83;;;34.20;61.00;;;;;;4993274;28;20207;-82
2023/07/07 09:59:46;;;;;;;3.35;2.25;;;35.50;57.80;;;;;;4978388;28;20674;-82
2023/07/07 10:02:36;;;;;;;2.55;2.35;;;36.50;58.90;;;;;;4998090;28;20373;-83
2023/07/07 10:05:31;;;;;;;4.72;2.28;;;37.30;56.80;;;;;;4986559;28;20218;-80
2023/07/07 10:08:20;;;;;;;4.88;2.10;;;38.00;53.80;;;;;;4984105;28;20250;-80
2023/07/07 10:11:20;;;;;;;3.75;2.10;;;38.50;53.10;;;;;;4982683;28;20229;-78
2023/07/07 10:14:14;;;;;;;6.45;2.17;;;37.80;49.70;;;;;;4989034;28;20222;-78
2023/07/07 10:17:16;;;;;;;3.17;2.17;;;38.10;50.30;;;;;;4986817;28;20230;-79
2023/07/07 10:20:06;;;;;;;5.13;2.30;;;38.90;49.00;;;;;;4999269;28;20297;-79
2023/07/07 10:22:55;;;;;;;3.03;2.30;;;39.30;49.10;;;;;;4976522;28;20361;-80
2023/07/07 10:25:46;;;;;;;2.10;1.90;;;38.90;51.20;;;;;;4983086;28;20222;-79
2023/07/07 10:28:35;;;;;;;7.63;2.20;;;40.30;48.30;;;;;;4988083;28;20251;-80
2023/07/07 10:31:26;;;;;;;9.75;2.03;;;40.40;45.80;;;;;;4980460;28;20231;-79
2023/07/07 10:34:26;;;;;;;2.95;1.88;;;37.20;47.60;;;;;;4987230;28;20976;-79
2023/07/07 10:37:19;;;;;;;6.15;3.45;;;33.80;48.80;;;;;;4984469;28;20571;-79
2023/07/07 10:40:21;;;;;;;9.82;2.58;;;35.80;53.10;;;;;;4986748;28;20292;-78
2023/07/07 10:43:13;;;;;;;6.78;2.70;;;34.20;49.10;;;;;;4980067;28;20226;-78
2023/07/07 10:46:03;;;;;;;5.57;1.90;;;32.50;54.80;;;;;;4981068;28;20283;-79
2023/07/07 10:48:56;;;;;;;3.25;2.25;;;31.50;55.10;;;;;;4979210;28;20225;-76
2023/07/07 10:51:55;;;;;;;8.20;2.40;;;31.00;56.40;;;;;;4983756;28;20591;-76
2023/07/07 10:54:58;;;;;;;7.00;2.22;;;36.10;53.60;;;;;;4980010;28;20218;-75
2023/07/07 10:58:00;;;;;;;6.35;1.90;;;39.80;48.50;;;;;;4978879;28;20325;-78
2023/07/07 11:01:04;;;;;;;2.55;1.65;;;41.90;47.20;;;;;;4987484;28;20224;-79
2023/07/07 11:04:24;;;;;;;4.13;1.70;;;43.40;44.70;;;;;;4989449;28;20669;-76
2023/07/07 11:07:30;;;;;;;11.13;2.58;;;43.90;43.40;;;;;;4981712;28;20942;-76
2023/07/07 11:10:34;;;;;;;5.70;1.83;;;43.00;42.50;;;;;;4983609;28;20590;-77
2023/07/07 11:13:40;;;;;;;5.05;2.00;;;38.70;43.10;;;;;;4994806;28;20220;-78
2023/07/07 11:16:36;;;;;;;7.85;1.92;;;35.60;47.70;;;;;;4971539;28;20242;-77
2023/07/07 11:19:55;;;;;;;3.97;1.92;;;33.40;50.10;;;;;;4976417;28;20745;-76
2023/07/07 11:23:13;;;;;;;2.83;2.10;;;32.40;50.30;;;;;;4974547;28;20226;-77
2023/07/07 11:26:14;;;;;;;2.83;2.00;;;36.40;49.20;;;;;;4982815;28;20541;-77
2023/07/07 11:29:13;;;;;;;2.90;1.95;;;39.60;45.10;;;;;;4976502;28;20295;-77
2023/07/07 11:32:11;;;;;;;3.92;1.70;;;41.90;41.70;;;;;;4960753;28;20222;-78
2023/07/07 11:35:18;;;;;;;2.38;1.80;;;43.50;42.10;;;;;;4967723;28;20237;-77
2023/07/07 11:38:45;;;;;;;4.38;1.60;;;44.10;40.80;;;;;;4988020;28;20301;-77
2023/07/07 11:41:49;;;;;;;1.73;1.48;;;38.00;42.80;;;;;;4980695;28;20702;-75
2023/07/07 11:44:49;;;;;;;2.60;2.00;;;35.30;45.10;;;;;;4970365;28;20231;-72
2023/07/07 11:48:20;;;;;;;6.93;1.90;;;42.30;44.50;;;;;;4980277;28;20222;-73
2023/07/07 11:51:23;;;;;;;5.35;2.13;;;45.60;40.20;;;;;;4963254;28;20230;-78
2023/07/07 11:54:39;;;;;;;4.68;1.63;;;47.30;38.90;;;;;;4976552;28;20464;-75
2023/07/07 11:57:49;;;;;;;4.50;1.90;;;48.50;36.20;;;;;;4973908;28;20246;-74
2023/07/07 12:00:47;;;;;;;3.70;1.80;;;48.70;35.40;;;;;;4980739;28;20255;-75
2023/07/07 12:03:50;;;;;;;2.65;1.50;;;48.50;34.50;;;;;;4986557;28;20658;-75
2023/07/07 12:06:45;;;;;;;4.38;1.75;;;48.50;33.10;;;;;;4977924;28;20746;-76
2023/07/07 12:09:41;;;;;;;4.40;1.70;;;49.40;33.20;;;;;;4982479;28;20639;-76
2023/07/07 12:12:37;;;;;;;2.05;1.55;;;50.90;32.90;;;;;;4977039;28;20225;-74
2023/07/07 12:15:30;;;;;;;2.28;1.40;;;47.60;30.70;;;;;;4982147;28;20358;-74
2023/07/07 12:18:22;;;;;;;50.28;5.35;;;41.50;34.80;;;;;;4976955;28;20235;-75
2023/07/07 12:21:16;;;;;;;11.23;1.85;;;37.70;37.90;;;;;;4973033;28;20310;-74
2023/07/07 12:24:15;;;;;;;29.90;3.53;;;34.50;39.80;;;;;;4977008;28;20332;-74
2023/07/07 12:27:14;;;;;;;34.05;3.20;;;33.30;43.80;;;;;;4988496;28;20222;-74
2023/07/07 12:30:04;;;;;;;5.85;2.05;;;36.70;44.80;;;;;;4959968;28;20306;-74
2023/07/07 12:32:54;;;;;;;2.13;1.65;;;45.70;37.60;;;;;;4966945;28;20257;-73
2023/07/07 12:35:47;;;;;;;2.20;1.80;;;46.50;34.30;;;;;;4966900;28;20219;-74
2023/07/07 12:38:37;;;;;;;7.43;1.73;;;48.50;33.60;;;;;;4973972;28;20586;-74
2023/07/07 12:41:28;;;;;;;4.50;1.75;;;49.80;34.10;;;;;;4975866;28;20369;-75
2023/07/07 12:44:18;;;;;;;3.85;1.90;;;50.70;31.50;;;;;;4980802;28;20233;-75
2023/07/07 12:47:19;;;;;;;1.80;1.50;;;50.10;32.60;;;;;;4982587;28;20292;-76
2023/07/07 12:50:25;;;;;;;1.70;1.48;;;49.40;30.50;;;;;;4991745;28;20278;-74
2023/07/07 12:53:26;;;;;;;2.55;1.42;;;49.50;33.40;;;;;;4971011;28;20241;-74
2023/07/07 12:56:18;;;;;;;3.40;1.50;;;49.00;32.50;;;;;;4978199;28;20880;-73
2023/07/07 12:59:36;;;;;;;3.80;1.60;;;47.40;32.00;;;;;;4984619;28;20305;-72
2023/07/07 13:02:26;;;;;;;7.50;1.83;;;40.50;35.50;;;;;;4977222;28;21888;-74
2023/07/07 13:05:22;;;;;;;28.63;3.08;;;37.30;38.40;;;;;;4971025;28;20257;-74
2023/07/07 13:08:11;;;;;;;11.32;1.80;;;35.20;40.70;;;;;;4968355;28;20218;-72
2023/07/07 13:11:04;;;;;;;2.97;1.50;;;34.00;42.80;;;;;;4988357;28;20231;-72
2023/07/07 13:13:55;;;;;;;2.95;1.35;;;32.90;42.90;;;;;;4998064;28;20329;-72
2023/07/07 13:16:46;;;;;;;3.85;1.83;;;32.50;45.30;;;;;;4974818;28;20218;-72
2023/07/07 13:19:37;;;;;;;1.95;1.80;;;31.50;43.40;;;;;;4973166;28;20313;-74
2023/07/07 13:22:35;;;;;;;2.42;1.90;;;31.20;43.70;;;;;;4976367;28;20226;-77
2023/07/07 13:25:29;;;;;;;3.90;1.98;;;30.40;44.30;;;;;;4977781;28;20230;-74
2023/07/07 13:28:23;;;;;;;2.85;1.77;;;30.20;44.00;;;;;;4982227;28;20254;-74
2023/07/07 13:31:16;;;;;;;2.45;1.52;;;30.30;44.90;;;;;;4983690;28;20728;-75
2023/07/07 13:34:07;;;;;;;2.15;1.75;;;29.80;45.10;;;;;;4980836;28;20222;-74
2023/07/07 13:36:56;;;;;;;4.47;1.73;;;30.00;45.00;;;;;;4975529;28;20233;-75
2023/07/07 13:39:46;;;;;;;12.50;2.17;;;29.50;44.70;;;;;;4972851;28;20230;-73
2023/07/07 13:42:36;;;;;;;5.47;1.98;;;29.50;46.20;;;;;;4976186;28;20298;-74
2023/07/07 13:45:25;;;;;;;5.47;1.70;;;29.30;44.10;;;;;;4980920;28;20242;-74
2023/07/07 13:48:22;;;;;;;3.42;1.70;;;29.10;45.00;;;;;;4984333;28;20276;-74
2023/07/07 13:51:19;;;;;;;3.17;1.63;;;29.00;46.10;;;;;;4981581;28;20971;-74
2023/07/07 13:54:09;;;;;;;1.77;1.60;;;28.90;46.30;;;;;;4983453;28;20214;-75
2023/07/07 13:57:02;;;;;;;2.35;1.52;;;28.70;45.60;;;;;;4978077;28;20313;-75
2023/07/07 13:59:51;;;;;;;3.47;1.80;;;28.20;45.90;;;;;;4973390;28;20241;-73
2023/07/07 14:02:43;;;;;;;2.97;1.75;;;28.40;46.40;;;;;;4968936;28;20245;-73
2023/07/07 14:05:35;;;;;;;2.67;1.60;;;28.40;47.00;;;;;;4975766;28;20291;-74
2023/07/07 14:08:28;;;;;;;2.28;1.63;;;28.40;47.60;;;;;;4985325;28;20222;-73
2023/07/07 14:11:20;;;;;;;2.85;1.90;;;28.30;47.50;;;;;;5002959;28;20312;-73
2023/07/07 14:14:09;;;;;;;4.85;2.00;;;28.20;47.70;;;;;;4997154;28;20336;-72
2023/07/07 14:17:02;;;;;;;3.80;2.00;;;28.30;48.40;;;;;;4983069;28;20219;-73
2023/07/07 14:19:57;;;;;;;16.45;2.47;;;28.10;48.20;;;;;;4971812;28;20688;-73
2023/07/07 14:22:46;;;;;;;12.70;2.47;;;27.70;48.70;;;;;;4985126;28;20225;-73
2023/07/07 14:25:41;;;;;;;3.80;2.00;;;27.40;48.90;;;;;;4976620;28;20226;-76
2023/07/07 14:28:34;;;;;;;4.65;2.00;;;27.60;49.00;;;;;;4978223;28;20214;-73
2023/07/07 14:31:23;;;;;;;4.35;2.20;;;27.50;48.90;;;;;;4980619;28;20589;-73
2023/07/07 14:34:13;;;;;;;7.63;2.05;;;27.60;48.80;;;;;;4995349;28;20233;-73
2023/07/07 14:37:04;;;;;;;5.82;1.70;;;27.40;48.60;;;;;;4981962;28;20222;-73
2023/07/07 14:39:58;;;;;;;3.28;1.90;;;27.40;49.10;;;;;;4997190;28;20586;-74
2023/07/07 14:42:56;;;;;;;5.53;2.55;;;27.30;48.90;;;;;;4977111;28;20234;-75
2023/07/07 14:45:45;;;;;;;3.22;1.80;;;27.60;49.10;;;;;;4980575;28;20230;-74
2023/07/07 14:48:47;;;;;;;2.80;1.88;;;27.70;49.20;;;;;;4986643;28;20726;-72
2023/07/07 14:51:42;;;;;;;3.88;1.98;;;27.40;48.80;;;;;;4995966;28;20844;-72
2023/07/07 14:54:31;;;;;;;21.27;3.13;;;27.40;49.70;;;;;;4990471;28;20286;-72
2023/07/07 14:57:22;;;;;;;4.45;2.50;;;27.00;49.50;;;;;;4971918;28;20697;-73